Portada
METAR-TAF:

METAR-TAF

Aeroports :

Zaporíjjia, Ucraïna

latitud: 47-52-02N, longitud: 035-18-59E, altitud: 114 m

Observació

L'informe es va fer fa 37 minuts, a les 16:00 UTC
Vent 4 kt del Est, variant entre Nord-Est i Sud-Est
Temperatura 3°C
Humitat 100%
Pressió 1019 hPa
Visibilitat: 0200 m
boira

METAR: UKDE 101600Z 09002MPS 050V130 0250 0200N FG VV002 03/03 Q1019 R20L/290558 NOSIG

Hora: 18:37 (16:37 UTC)

Pronòstic

L'informe es va fer fa 2 hores i 35 minuts, a les 14:02 UTC
Pronòstic vàlid del 10 a les 15 UTC al 10 a les 24 UTC
Vent 6 kt del Est
Visibilitat: 0100 m
a una alçada de 100 ft
boira
Temporalment
l' 10 a les 20 UTC al 10 a les 24 UTC
Visibilitat: 1000 m
Cel cobert a una alçada de 300 ft
boirina

TAF: UKDE 101402Z 1015/1024 09003MPS 0100 FG VV001 TX03/1016Z TN01/1024Z TEMPO 1020/1024 1000 BR OVC003

Observacions i pronòstics meteorològics de més de 4000 aeroports (METAR i TAF).

Les estacions disponibles són els punts grocs i vermells al mapa.

Posi el ratolí al punt desitjat per veure el nom de l'estació.

Feu clic per veure les observacions i els pronòstics meteorològics.

Per canviar el mapa: feu clic els botons verds amb una creu de color negre per apropar; al botó verd amb un guió per allunyar la imatge; o en les fletxes verdes per a mapes adjacents.


METAR-TAF: